Alsace Manor, Pennsylvania
Current Conditions -  °F | °C
As of 8:30 AM on Wednesday 22 Oct 2014 (Local Time) from KRDG Reporting Station
Light Rain Light Rain  
Wind Chill: 12°   Ceiling: 2500
Heat Index: 12°   Visibility: 10mi
Dew Point: 10°   Wind: 7mph
Humidity: 86%   Direction: 10°N
Pressure: 29.92"   Gusts: NA
Location:  40.4008°N, 75.8851°W
Report Text: KRDG 221230Z 01006KT 10SM -RA FEW013 BKN025 OVC065 12/10 A2992 RMK AO2 P0001 T01220100
Loading
Personal Weather Stations






























Interactive Weather Map
Tropical Storm Tracking
New forecast layout! Learn more

10-Day Weather Forecast

Advertisements
Track Severe Weather on mobile